sensor_id;sensor_type;location;lat;lon;timestamp;P1;durP1;ratioP1;P2;durP2;ratioP2
33160;SDS011;19522;45.656;11.302;2023-11-19T00:00:10;22.52;;;12.40;;
33160;SDS011;19522;45.656;11.302;2023-11-19T00:02:37;18.65;;;11.73;;
33160;SDS011;19522;45.656;11.302;2023-11-19T00:05:05;24.30;;;14.40;;
33160;SDS011;19522;45.656;11.302;2023-11-19T00:07:37;21.30;;;12.25;;
33160;SDS011;19522;45.656;11.302;2023-11-19T00:10:09;19.98;;;11.93;;
33160;SDS011;19522;45.656;11.302;2023-11-19T00:12:39;20.48;;;12.25;;
33160;SDS011;19522;45.656;11.302;2023-11-19T00:15:07;19.42;;;11.20;;
33160;SDS011;19522;45.656;11.302;2023-11-19T00:17:43;16.55;;;11.60;;
33160;SDS011;19522;45.656;11.302;2023-11-19T00:20:14;18.50;;;12.88;;
33160;SDS011;19522;45.656;11.302;2023-11-19T00:22:41;18.58;;;11.27;;
33160;SDS011;19522;45.656;11.302;2023-11-19T00:25:07;16.50;;;10.93;;
33160;SDS011;19522;45.656;11.302;2023-11-19T00:27:33;17.63;;;10.90;;
33160;SDS011;19522;45.656;11.302;2023-11-19T00:29:59;19.52;;;12.00;;
33160;SDS011;19522;45.656;11.302;2023-11-19T00:32:24;20.83;;;14.60;;
33160;SDS011;19522;45.656;11.302;2023-11-19T00:34:50;22.17;;;13.75;;
33160;SDS011;19522;45.656;11.302;2023-11-19T00:37:16;18.23;;;11.23;;
33160;SDS011;19522;45.656;11.302;2023-11-19T00:39:41;17.35;;;10.70;;
33160;SDS011;19522;45.656;11.302;2023-11-19T00:42:08;15.32;;;10.20;;
33160;SDS011;19522;45.656;11.302;2023-11-19T00:44:35;14.63;;;9.63;;
33160;SDS011;19522;45.656;11.302;2023-11-19T00:47:04;14.98;;;9.30;;
33160;SDS011;19522;45.656;11.302;2023-11-19T00:49:30;13.57;;;8.93;;
33160;SDS011;19522;45.656;11.302;2023-11-19T00:51:57;14.57;;;9.73;;
33160;SDS011;19522;45.656;11.302;2023-11-19T00:54:24;13.45;;;8.82;;
33160;SDS011;19522;45.656;11.302;2023-11-19T00:56:51;15.82;;;9.15;;
33160;SDS011;19522;45.656;11.302;2023-11-19T00:59:17;15.02;;;9.77;;
33160;SDS011;19522;45.656;11.302;2023-11-19T01:01:43;13.95;;;9.15;;
33160;SDS011;19522;45.656;11.302;2023-11-19T01:04:09;14.65;;;10.05;;
33160;SDS011;19522;45.656;11.302;2023-11-19T01:06:34;15.93;;;10.00;;
33160;SDS011;19522;45.656;11.302;2023-11-19T01:09:00;16.98;;;11.00;;
33160;SDS011;19522;45.656;11.302;2023-11-19T01:11:25;15.52;;;10.05;;
33160;SDS011;19522;45.656;11.302;2023-11-19T01:13:54;14.18;;;8.50;;
33160;SDS011;19522;45.656;11.302;2023-11-19T01:16:19;15.50;;;10.15;;
33160;SDS011;19522;45.656;11.302;2023-11-19T01:18:48;14.45;;;8.60;;
33160;SDS011;19522;45.656;11.302;2023-11-19T01:21:14;14.52;;;8.75;;
33160;SDS011;19522;45.656;11.302;2023-11-19T01:23:40;16.95;;;8.48;;
33160;SDS011;19522;45.656;11.302;2023-11-19T01:26:10;16.08;;;8.70;;
33160;SDS011;19522;45.656;11.302;2023-11-19T01:28:37;13.43;;;8.95;;
33160;SDS011;19522;45.656;11.302;2023-11-19T01:31:07;12.52;;;8.35;;
33160;SDS011;19522;45.656;11.302;2023-11-19T01:33:33;16.65;;;9.48;;
33160;SDS011;19522;45.656;11.302;2023-11-19T01:36:01;13.52;;;8.20;;
33160;SDS011;19522;45.656;11.302;2023-11-19T01:38:26;13.02;;;8.38;;
33160;SDS011;19522;45.656;11.302;2023-11-19T01:40:55;13.55;;;8.60;;
33160;SDS011;19522;45.656;11.302;2023-11-19T01:43:33;11.75;;;7.65;;
33160;SDS011;19522;45.656;11.302;2023-11-19T01:46:07;9.43;;;5.80;;
33160;SDS011;19522;45.656;11.302;2023-11-19T01:48:37;13.43;;;7.70;;
33160;SDS011;19522;45.656;11.302;2023-11-19T01:51:07;12.38;;;8.27;;
33160;SDS011;19522;45.656;11.302;2023-11-19T01:53:34;12.68;;;7.80;;
33160;SDS011;19522;45.656;11.302;2023-11-19T01:56:03;18.90;;;11.13;;
33160;SDS011;19522;45.656;11.302;2023-11-19T01:58:34;16.40;;;9.50;;
33160;SDS011;19522;45.656;11.302;2023-11-19T02:01:04;13.20;;;8.27;;
33160;SDS011;19522;45.656;11.302;2023-11-19T02:03:31;15.90;;;9.25;;
33160;SDS011;19522;45.656;11.302;2023-11-19T02:05:58;15.18;;;9.25;;
33160;SDS011;19522;45.656;11.302;2023-11-19T02:08:24;15.00;;;8.85;;
33160;SDS011;19522;45.656;11.302;2023-11-19T02:10:51;16.45;;;9.23;;
33160;SDS011;19522;45.656;11.302;2023-11-19T02:13:19;14.43;;;8.90;;
33160;SDS011;19522;45.656;11.302;2023-11-19T02:15:45;15.77;;;9.15;;
33160;SDS011;19522;45.656;11.302;2023-11-19T02:18:17;14.40;;;8.05;;
33160;SDS011;19522;45.656;11.302;2023-11-19T02:20:44;13.48;;;7.85;;
33160;SDS011;19522;45.656;11.302;2023-11-19T02:23:09;13.23;;;7.70;;
33160;SDS011;19522;45.656;11.302;2023-11-19T02:25:35;14.20;;;7.97;;
33160;SDS011;19522;45.656;11.302;2023-11-19T02:28:05;13.52;;;7.63;;
33160;SDS011;19522;45.656;11.302;2023-11-19T02:30:31;16.80;;;7.70;;
33160;SDS011;19522;45.656;11.302;2023-11-19T02:32:57;13.10;;;8.07;;
33160;SDS011;19522;45.656;11.302;2023-11-19T02:35:27;12.48;;;7.97;;
33160;SDS011;19522;45.656;11.302;2023-11-19T02:37:54;14.75;;;8.80;;
33160;SDS011;19522;45.656;11.302;2023-11-19T02:40:24;12.95;;;8.30;;
33160;SDS011;19522;45.656;11.302;2023-11-19T02:42:53;13.73;;;7.72;;
33160;SDS011;19522;45.656;11.302;2023-11-19T02:45:20;13.65;;;7.95;;
33160;SDS011;19522;45.656;11.302;2023-11-19T02:47:47;11.10;;;7.05;;
33160;SDS011;19522;45.656;11.302;2023-11-19T02:50:12;12.35;;;7.57;;
33160;SDS011;19522;45.656;11.302;2023-11-19T02:52:44;12.95;;;7.13;;
33160;SDS011;19522;45.656;11.302;2023-11-19T02:55:11;11.73;;;7.18;;
33160;SDS011;19522;45.656;11.302;2023-11-19T02:57:40;12.18;;;7.70;;
33160;SDS011;19522;45.656;11.302;2023-11-19T03:00:15;12.68;;;7.68;;
33160;SDS011;19522;45.656;11.302;2023-11-19T03:02:42;13.75;;;7.90;;
33160;SDS011;19522;45.656;11.302;2023-11-19T03:05:13;14.52;;;7.72;;
33160;SDS011;19522;45.656;11.302;2023-11-19T03:07:44;13.40;;;7.35;;
33160;SDS011;19522;45.656;11.302;2023-11-19T03:10:13;12.13;;;7.30;;
33160;SDS011;19522;45.656;11.302;2023-11-19T03:12:42;11.93;;;7.53;;
33160;SDS011;19522;45.656;11.302;2023-11-19T03:15:09;11.35;;;6.70;;
33160;SDS011;19522;45.656;11.302;2023-11-19T03:17:36;13.25;;;8.15;;
33160;SDS011;19522;45.656;11.302;2023-11-19T03:20:04;11.50;;;7.47;;
33160;SDS011;19522;45.656;11.302;2023-11-19T03:22:32;13.60;;;7.93;;
33160;SDS011;19522;45.656;11.302;2023-11-19T03:24:59;11.10;;;6.57;;
33160;SDS011;19522;45.656;11.302;2023-11-19T03:27:25;17.02;;;8.27;;
33160;SDS011;19522;45.656;11.302;2023-11-19T03:29:50;11.68;;;7.18;;
33160;SDS011;19522;45.656;11.302;2023-11-19T03:32:16;12.30;;;7.72;;
33160;SDS011;19522;45.656;11.302;2023-11-19T03:34:41;12.75;;;7.30;;
33160;SDS011;19522;45.656;11.302;2023-11-19T03:37:07;14.10;;;7.57;;
33160;SDS011;19522;45.656;11.302;2023-11-19T03:39:32;11.95;;;7.38;;
33160;SDS011;19522;45.656;11.302;2023-11-19T03:41:58;13.55;;;7.82;;
33160;SDS011;19522;45.656;11.302;2023-11-19T03:44:23;11.48;;;7.32;;
33160;SDS011;19522;45.656;11.302;2023-11-19T03:46:51;10.30;;;6.88;;
33160;SDS011;19522;45.656;11.302;2023-11-19T03:49:20;13.35;;;7.63;;
33160;SDS011;19522;45.656;11.302;2023-11-19T03:51:45;12.45;;;8.10;;
33160;SDS011;19522;45.656;11.302;2023-11-19T03:54:11;12.70;;;8.43;;
33160;SDS011;19522;45.656;11.302;2023-11-19T03:56:36;12.00;;;7.70;;
33160;SDS011;19522;45.656;11.302;2023-11-19T03:59:02;14.25;;;8.18;;
33160;SDS011;19522;45.656;11.302;2023-11-19T04:01:28;12.63;;;7.45;;
33160;SDS011;19522;45.656;11.302;2023-11-19T04:03:53;14.32;;;8.98;;
33160;SDS011;19522;45.656;11.302;2023-11-19T04:06:20;10.73;;;6.93;;
33160;SDS011;19522;45.656;11.302;2023-11-19T04:08:46;14.25;;;7.78;;
33160;SDS011;19522;45.656;11.302;2023-11-19T04:11:12;14.32;;;8.52;;
33160;SDS011;19522;45.656;11.302;2023-11-19T04:13:37;12.85;;;7.93;;
33160;SDS011;19522;45.656;11.302;2023-11-19T04:16:03;14.93;;;7.95;;
33160;SDS011;19522;45.656;11.302;2023-11-19T04:18:29;12.27;;;8.15;;
33160;SDS011;19522;45.656;11.302;2023-11-19T04:20:55;12.63;;;8.40;;
33160;SDS011;19522;45.656;11.302;2023-11-19T04:23:21;12.10;;;8.57;;
33160;SDS011;19522;45.656;11.302;2023-11-19T04:25:46;13.48;;;8.48;;
33160;SDS011;19522;45.656;11.302;2023-11-19T04:28:12;12.05;;;7.90;;
33160;SDS011;19522;45.656;11.302;2023-11-19T04:30:37;14.35;;;8.60;;
33160;SDS011;19522;45.656;11.302;2023-11-19T04:33:03;12.63;;;7.97;;
33160;SDS011;19522;45.656;11.302;2023-11-19T04:35:28;13.80;;;8.38;;
33160;SDS011;19522;45.656;11.302;2023-11-19T04:37:54;13.10;;;8.32;;
33160;SDS011;19522;45.656;11.302;2023-11-19T04:40:22;13.93;;;8.77;;
33160;SDS011;19522;45.656;11.302;2023-11-19T04:42:48;14.60;;;8.82;;
33160;SDS011;19522;45.656;11.302;2023-11-19T04:45:13;15.45;;;8.98;;
33160;SDS011;19522;45.656;11.302;2023-11-19T04:47:41;14.90;;;8.50;;
33160;SDS011;19522;45.656;11.302;2023-11-19T04:50:07;15.38;;;8.10;;
33160;SDS011;19522;45.656;11.302;2023-11-19T04:52:37;13.60;;;8.70;;
33160;SDS011;19522;45.656;11.302;2023-11-19T04:55:05;12.73;;;7.88;;
33160;SDS011;19522;45.656;11.302;2023-11-19T04:57:31;13.38;;;8.90;;
33160;SDS011;19522;45.656;11.302;2023-11-19T04:59:57;12.25;;;8.13;;
33160;SDS011;19522;45.656;11.302;2023-11-19T05:02:23;13.23;;;7.95;;
33160;SDS011;19522;45.656;11.302;2023-11-19T05:04:49;13.50;;;8.60;;
33160;SDS011;19522;45.656;11.302;2023-11-19T05:07:14;14.07;;;9.20;;
33160;SDS011;19522;45.656;11.302;2023-11-19T05:09:40;16.40;;;8.77;;
33160;SDS011;19522;45.656;11.302;2023-11-19T05:12:05;13.02;;;8.02;;
33160;SDS011;19522;45.656;11.302;2023-11-19T05:14:34;12.05;;;7.90;;
33160;SDS011;19522;45.656;11.302;2023-11-19T05:17:00;13.82;;;8.73;;
33160;SDS011;19522;45.656;11.302;2023-11-19T05:19:26;14.02;;;8.35;;
33160;SDS011;19522;45.656;11.302;2023-11-19T05:21:51;14.73;;;9.25;;
33160;SDS011;19522;45.656;11.302;2023-11-19T05:24:17;13.43;;;9.35;;
33160;SDS011;19522;45.656;11.302;2023-11-19T05:26:43;12.85;;;9.18;;
33160;SDS011;19522;45.656;11.302;2023-11-19T05:29:08;11.40;;;7.75;;
33160;SDS011;19522;45.656;11.302;2023-11-19T05:31:34;13.20;;;8.25;;
33160;SDS011;19522;45.656;11.302;2023-11-19T05:33:59;15.73;;;9.20;;
33160;SDS011;19522;45.656;11.302;2023-11-19T05:36:25;15.35;;;8.80;;
33160;SDS011;19522;45.656;11.302;2023-11-19T05:38:50;14.60;;;8.75;;
33160;SDS011;19522;45.656;11.302;2023-11-19T05:41:16;13.15;;;8.23;;
33160;SDS011;19522;45.656;11.302;2023-11-19T05:43:41;15.23;;;8.38;;
33160;SDS011;19522;45.656;11.302;2023-11-19T05:46:07;14.30;;;9.10;;
33160;SDS011;19522;45.656;11.302;2023-11-19T05:48:34;13.95;;;8.77;;
33160;SDS011;19522;45.656;11.302;2023-11-19T05:50:59;15.43;;;9.82;;
33160;SDS011;19522;45.656;11.302;2023-11-19T05:53:25;16.55;;;9.20;;
33160;SDS011;19522;45.656;11.302;2023-11-19T05:55:50;16.33;;;10.07;;
33160;SDS011;19522;45.656;11.302;2023-11-19T05:58:23;17.13;;;10.07;;
33160;SDS011;19522;45.656;11.302;2023-11-19T06:00:56;16.90;;;9.75;;
33160;SDS011;19522;45.656;11.302;2023-11-19T06:03:22;18.00;;;10.25;;
33160;SDS011;19522;45.656;11.302;2023-11-19T06:05:48;16.35;;;10.05;;
33160;SDS011;19522;45.656;11.302;2023-11-19T06:08:16;15.45;;;9.73;;
33160;SDS011;19522;45.656;11.302;2023-11-19T06:10:45;15.55;;;9.57;;
33160;SDS011;19522;45.656;11.302;2023-11-19T06:13:12;14.85;;;10.15;;
33160;SDS011;19522;45.656;11.302;2023-11-19T06:15:41;16.08;;;9.88;;
33160;SDS011;19522;45.656;11.302;2023-11-19T06:18:07;14.98;;;9.77;;
33160;SDS011;19522;45.656;11.302;2023-11-19T06:20:33;14.00;;;9.63;;
33160;SDS011;19522;45.656;11.302;2023-11-19T06:22:59;14.70;;;9.25;;
33160;SDS011;19522;45.656;11.302;2023-11-19T06:25:26;15.63;;;8.95;;
33160;SDS011;19522;45.656;11.302;2023-11-19T06:27:51;16.05;;;9.52;;
33160;SDS011;19522;45.656;11.302;2023-11-19T06:30:18;17.80;;;10.02;;
33160;SDS011;19522;45.656;11.302;2023-11-19T06:32:44;17.77;;;9.15;;
33160;SDS011;19522;45.656;11.302;2023-11-19T06:35:09;14.77;;;9.25;;
33160;SDS011;19522;45.656;11.302;2023-11-19T06:37:35;13.20;;;9.15;;
33160;SDS011;19522;45.656;11.302;2023-11-19T06:40:01;14.85;;;9.75;;
33160;SDS011;19522;45.656;11.302;2023-11-19T06:42:30;13.93;;;9.40;;
33160;SDS011;19522;45.656;11.302;2023-11-19T06:44:55;16.23;;;9.30;;
33160;SDS011;19522;45.656;11.302;2023-11-19T06:47:22;15.90;;;9.77;;
33160;SDS011;19522;45.656;11.302;2023-11-19T06:49:51;15.27;;;9.05;;
33160;SDS011;19522;45.656;11.302;2023-11-19T06:52:17;16.05;;;10.02;;
33160;SDS011;19522;45.656;11.302;2023-11-19T06:54:42;18.25;;;11.13;;
33160;SDS011;19522;45.656;11.302;2023-11-19T06:57:08;15.52;;;11.45;;
33160;SDS011;19522;45.656;11.302;2023-11-19T06:59:34;16.10;;;10.52;;
33160;SDS011;19522;45.656;11.302;2023-11-19T07:02:00;20.65;;;12.00;;
33160;SDS011;19522;45.656;11.302;2023-11-19T07:04:25;18.80;;;12.07;;
33160;SDS011;19522;45.656;11.302;2023-11-19T07:06:51;17.88;;;11.63;;
33160;SDS011;19522;45.656;11.302;2023-11-19T07:09:18;18.20;;;12.38;;
33160;SDS011;19522;45.656;11.302;2023-11-19T07:11:43;20.75;;;13.10;;
33160;SDS011;19522;45.656;11.302;2023-11-19T07:14:11;19.98;;;12.65;;
33160;SDS011;19522;45.656;11.302;2023-11-19T07:16:37;21.83;;;14.13;;
33160;SDS011;19522;45.656;11.302;2023-11-19T07:19:03;21.42;;;14.68;;
33160;SDS011;19522;45.656;11.302;2023-11-19T07:21:30;27.38;;;17.13;;
33160;SDS011;19522;45.656;11.302;2023-11-19T07:23:56;23.75;;;15.05;;
33160;SDS011;19522;45.656;11.302;2023-11-19T07:26:22;22.27;;;15.90;;
33160;SDS011;19522;45.656;11.302;2023-11-19T07:28:48;23.70;;;15.55;;
33160;SDS011;19522;45.656;11.302;2023-11-19T07:31:17;22.15;;;16.63;;
33160;SDS011;19522;45.656;11.302;2023-11-19T07:33:45;19.52;;;14.18;;
33160;SDS011;19522;45.656;11.302;2023-11-19T07:36:14;23.95;;;14.57;;
33160;SDS011;19522;45.656;11.302;2023-11-19T07:38:39;24.08;;;15.88;;
33160;SDS011;19522;45.656;11.302;2023-11-19T07:41:05;23.02;;;15.18;;
33160;SDS011;19522;45.656;11.302;2023-11-19T07:43:32;26.30;;;16.80;;
33160;SDS011;19522;45.656;11.302;2023-11-19T07:45:58;23.75;;;16.73;;
33160;SDS011;19522;45.656;11.302;2023-11-19T07:48:26;23.45;;;15.10;;
33160;SDS011;19522;45.656;11.302;2023-11-19T07:50:52;23.10;;;15.90;;
33160;SDS011;19522;45.656;11.302;2023-11-19T07:53:18;22.25;;;15.02;;
33160;SDS011;19522;45.656;11.302;2023-11-19T07:55:45;20.17;;;14.07;;
33160;SDS011;19522;45.656;11.302;2023-11-19T07:58:11;36.63;;;21.52;;
33160;SDS011;19522;45.656;11.302;2023-11-19T08:00:37;27.77;;;17.77;;
33160;SDS011;19522;45.656;11.302;2023-11-19T08:03:06;20.98;;;14.48;;
33160;SDS011;19522;45.656;11.302;2023-11-19T08:05:32;22.65;;;14.35;;
33160;SDS011;19522;45.656;11.302;2023-11-19T08:07:58;22.80;;;14.80;;
33160;SDS011;19522;45.656;11.302;2023-11-19T08:10:24;20.90;;;14.75;;
33160;SDS011;19522;45.656;11.302;2023-11-19T08:12:49;20.55;;;14.55;;
33160;SDS011;19522;45.656;11.302;2023-11-19T08:15:15;25.08;;;15.27;;
33160;SDS011;19522;45.656;11.302;2023-11-19T08:17:41;22.02;;;14.32;;
33160;SDS011;19522;45.656;11.302;2023-11-19T08:20:10;20.85;;;13.32;;
33160;SDS011;19522;45.656;11.302;2023-11-19T08:22:36;20.85;;;13.63;;
33160;SDS011;19522;45.656;11.302;2023-11-19T08:25:04;19.23;;;13.00;;
33160;SDS011;19522;45.656;11.302;2023-11-19T08:27:30;20.02;;;13.50;;
33160;SDS011;19522;45.656;11.302;2023-11-19T08:29:55;22.02;;;14.15;;
33160;SDS011;19522;45.656;11.302;2023-11-19T08:32:26;18.85;;;13.15;;
33160;SDS011;19522;45.656;11.302;2023-11-19T08:34:52;20.23;;;13.90;;
33160;SDS011;19522;45.656;11.302;2023-11-19T08:37:18;23.40;;;13.88;;
33160;SDS011;19522;45.656;11.302;2023-11-19T08:39:49;22.90;;;14.23;;
33160;SDS011;19522;45.656;11.302;2023-11-19T08:42:16;19.35;;;14.23;;
33160;SDS011;19522;45.656;11.302;2023-11-19T08:44:41;19.42;;;13.70;;
33160;SDS011;19522;45.656;11.302;2023-11-19T08:47:09;24.00;;;13.80;;
33160;SDS011;19522;45.656;11.302;2023-11-19T08:49:36;19.95;;;13.35;;
33160;SDS011;19522;45.656;11.302;2023-11-19T08:52:01;21.83;;;13.60;;
33160;SDS011;19522;45.656;11.302;2023-11-19T08:54:27;19.98;;;13.52;;
33160;SDS011;19522;45.656;11.302;2023-11-19T08:56:52;20.55;;;13.70;;
33160;SDS011;19522;45.656;11.302;2023-11-19T08:59:18;20.45;;;12.82;;
33160;SDS011;19522;45.656;11.302;2023-11-19T09:01:44;23.95;;;13.90;;
33160;SDS011;19522;45.656;11.302;2023-11-19T09:04:10;19.98;;;13.73;;
33160;SDS011;19522;45.656;11.302;2023-11-19T09:06:35;19.30;;;13.35;;
33160;SDS011;19522;45.656;11.302;2023-11-19T09:09:01;18.15;;;12.73;;
33160;SDS011;19522;45.656;11.302;2023-11-19T09:11:28;21.65;;;13.63;;
33160;SDS011;19522;45.656;11.302;2023-11-19T09:13:54;21.27;;;14.07;;
33160;SDS011;19522;45.656;11.302;2023-11-19T09:16:20;20.73;;;13.68;;
33160;SDS011;19522;45.656;11.302;2023-11-19T09:18:46;17.35;;;12.30;;
33160;SDS011;19522;45.656;11.302;2023-11-19T09:21:12;20.90;;;14.02;;
33160;SDS011;19522;45.656;11.302;2023-11-19T09:23:38;24.70;;;14.38;;
33160;SDS011;19522;45.656;11.302;2023-11-19T09:26:13;23.13;;;15.15;;
33160;SDS011;19522;45.656;11.302;2023-11-19T09:28:39;24.65;;;15.80;;
33160;SDS011;19522;45.656;11.302;2023-11-19T09:31:17;26.00;;;16.77;;
33160;SDS011;19522;45.656;11.302;2023-11-19T09:33:43;24.00;;;16.33;;
33160;SDS011;19522;45.656;11.302;2023-11-19T09:36:11;22.40;;;15.32;;
33160;SDS011;19522;45.656;11.302;2023-11-19T09:38:39;21.08;;;15.40;;
33160;SDS011;19522;45.656;11.302;2023-11-19T09:41:09;20.42;;;15.27;;
33160;SDS011;19522;45.656;11.302;2023-11-19T09:43:37;23.15;;;15.68;;
33160;SDS011;19522;45.656;11.302;2023-11-19T09:46:04;21.80;;;15.05;;
33160;SDS011;19522;45.656;11.302;2023-11-19T09:48:36;22.42;;;15.30;;
33160;SDS011;19522;45.656;11.302;2023-11-19T09:51:06;18.77;;;12.23;;
33160;SDS011;19522;45.656;11.302;2023-11-19T09:53:35;19.05;;;13.02;;
33160;SDS011;19522;45.656;11.302;2023-11-19T09:56:04;17.70;;;13.02;;
33160;SDS011;19522;45.656;11.302;2023-11-19T09:58:31;19.23;;;12.95;;
33160;SDS011;19522;45.656;11.302;2023-11-19T10:00:58;19.73;;;13.20;;
33160;SDS011;19522;45.656;11.302;2023-11-19T10:03:24;18.60;;;13.18;;
33160;SDS011;19522;45.656;11.302;2023-11-19T10:06:03;22.77;;;13.75;;
33160;SDS011;19522;45.656;11.302;2023-11-19T10:08:29;20.77;;;14.25;;
33160;SDS011;19522;45.656;11.302;2023-11-19T10:10:55;16.25;;;11.93;;
33160;SDS011;19522;45.656;11.302;2023-11-19T10:13:25;19.90;;;13.68;;
33160;SDS011;19522;45.656;11.302;2023-11-19T10:15:52;18.23;;;13.27;;
33160;SDS011;19522;45.656;11.302;2023-11-19T10:18:18;19.02;;;13.60;;
33160;SDS011;19522;45.656;11.302;2023-11-19T10:20:43;19.38;;;14.15;;
33160;SDS011;19522;45.656;11.302;2023-11-19T10:23:10;18.02;;;12.88;;
33160;SDS011;19522;45.656;11.302;2023-11-19T10:25:36;20.10;;;13.63;;
33160;SDS011;19522;45.656;11.302;2023-11-19T10:28:02;19.60;;;13.63;;
33160;SDS011;19522;45.656;11.302;2023-11-19T10:30:28;21.38;;;14.80;;
33160;SDS011;19522;45.656;11.302;2023-11-19T10:33:07;19.20;;;13.98;;
33160;SDS011;19522;45.656;11.302;2023-11-19T10:35:55;19.25;;;13.68;;
33160;SDS011;19522;45.656;11.302;2023-11-19T10:38:22;20.02;;;14.65;;
33160;SDS011;19522;45.656;11.302;2023-11-19T10:40:49;20.25;;;14.70;;
33160;SDS011;19522;45.656;11.302;2023-11-19T10:43:16;20.77;;;15.02;;
33160;SDS011;19522;45.656;11.302;2023-11-19T10:45:42;19.92;;;14.30;;
33160;SDS011;19522;45.656;11.302;2023-11-19T10:48:08;19.85;;;14.73;;
33160;SDS011;19522;45.656;11.302;2023-11-19T10:50:35;19.00;;;14.45;;
33160;SDS011;19522;45.656;11.302;2023-11-19T10:53:02;22.65;;;14.80;;
33160;SDS011;19522;45.656;11.302;2023-11-19T10:55:35;20.98;;;15.40;;
33160;SDS011;19522;45.656;11.302;2023-11-19T10:58:04;23.95;;;14.88;;
33160;SDS011;19522;45.656;11.302;2023-11-19T11:00:37;23.02;;;14.52;;
33160;SDS011;19522;45.656;11.302;2023-11-19T11:03:11;20.60;;;14.65;;
33160;SDS011;19522;45.656;11.302;2023-11-19T11:05:46;21.65;;;15.38;;
33160;SDS011;19522;45.656;11.302;2023-11-19T11:08:12;19.02;;;13.77;;
33160;SDS011;19522;45.656;11.302;2023-11-19T11:10:52;21.85;;;15.30;;
33160;SDS011;19522;45.656;11.302;2023-11-19T11:13:19;24.80;;;17.17;;
33160;SDS011;19522;45.656;11.302;2023-11-19T11:15:48;21.40;;;15.32;;
33160;SDS011;19522;45.656;11.302;2023-11-19T11:18:15;21.50;;;15.38;;
33160;SDS011;19522;45.656;11.302;2023-11-19T11:20:42;23.25;;;15.77;;
33160;SDS011;19522;45.656;11.302;2023-11-19T11:28:48;22.52;;;16.85;;
33160;SDS011;19522;45.656;11.302;2023-11-19T11:39:42;24.38;;;16.35;;
33160;SDS011;19522;45.656;11.302;2023-11-19T11:44:57;24.80;;;16.52;;
33160;SDS011;19522;45.656;11.302;2023-11-19T11:47:24;23.40;;;16.35;;
33160;SDS011;19522;45.656;11.302;2023-11-19T11:49:50;26.65;;;17.58;;
33160;SDS011;19522;45.656;11.302;2023-11-19T11:52:17;23.17;;;17.17;;
33160;SDS011;19522;45.656;11.302;2023-11-19T11:54:43;26.42;;;18.05;;
33160;SDS011;19522;45.656;11.302;2023-11-19T11:57:12;25.65;;;17.02;;
33160;SDS011;19522;45.656;11.302;2023-11-19T12:02:07;27.02;;;17.15;;
33160;SDS011;19522;45.656;11.302;2023-11-19T12:04:34;23.45;;;16.67;;
33160;SDS011;19522;45.656;11.302;2023-11-19T12:07:13;25.08;;;16.50;;
33160;SDS011;19522;45.656;11.302;2023-11-19T12:09:40;21.02;;;15.70;;
33160;SDS011;19522;45.656;11.302;2023-11-19T12:12:07;22.98;;;16.20;;
33160;SDS011;19522;45.656;11.302;2023-11-19T12:22:30;24.02;;;16.48;;
33160;SDS011;19522;45.656;11.302;2023-11-19T12:24:56;27.35;;;18.10;;
33160;SDS011;19522;45.656;11.302;2023-11-19T12:27:21;24.98;;;17.27;;
33160;SDS011;19522;45.656;11.302;2023-11-19T12:29:47;22.58;;;15.95;;
33160;SDS011;19522;45.656;11.302;2023-11-19T12:32:16;25.50;;;17.65;;
33160;SDS011;19522;45.656;11.302;2023-11-19T12:34:44;24.65;;;18.30;;
33160;SDS011;19522;45.656;11.302;2023-11-19T12:37:10;24.85;;;17.50;;
33160;SDS011;19522;45.656;11.302;2023-11-19T12:39:36;27.08;;;17.92;;
33160;SDS011;19522;45.656;11.302;2023-11-19T12:42:01;24.92;;;16.70;;
33160;SDS011;19522;45.656;11.302;2023-11-19T12:44:27;25.10;;;17.98;;
33160;SDS011;19522;45.656;11.302;2023-11-19T12:47:05;26.02;;;17.75;;
33160;SDS011;19522;45.656;11.302;2023-11-19T12:49:32;27.85;;;18.15;;
33160;SDS011;19522;45.656;11.302;2023-11-19T12:51:58;25.42;;;17.80;;
33160;SDS011;19522;45.656;11.302;2023-11-19T12:54:40;26.10;;;18.67;;
33160;SDS011;19522;45.656;11.302;2023-11-19T12:57:05;24.58;;;17.45;;
33160;SDS011;19522;45.656;11.302;2023-11-19T12:59:31;28.55;;;17.70;;
33160;SDS011;19522;45.656;11.302;2023-11-19T13:01:59;25.88;;;18.42;;
33160;SDS011;19522;45.656;11.302;2023-11-19T13:04:29;25.63;;;18.42;;
33160;SDS011;19522;45.656;11.302;2023-11-19T13:06:58;26.23;;;18.95;;
33160;SDS011;19522;45.656;11.302;2023-11-19T13:09:27;25.45;;;18.60;;
33160;SDS011;19522;45.656;11.302;2023-11-19T13:11:54;26.13;;;17.67;;
33160;SDS011;19522;45.656;11.302;2023-11-19T13:14:21;26.35;;;18.38;;
33160;SDS011;19522;45.656;11.302;2023-11-19T13:16:47;24.52;;;17.77;;
33160;SDS011;19522;45.656;11.302;2023-11-19T13:19:13;24.95;;;17.90;;
33160;SDS011;19522;45.656;11.302;2023-11-19T13:21:39;25.35;;;18.60;;
33160;SDS011;19522;45.656;11.302;2023-11-19T13:24:08;26.55;;;18.85;;
33160;SDS011;19522;45.656;11.302;2023-11-19T13:26:35;27.77;;;19.10;;
33160;SDS011;19522;45.656;11.302;2023-11-19T13:29:00;26.48;;;18.50;;
33160;SDS011;19522;45.656;11.302;2023-11-19T13:31:26;28.92;;;20.00;;
33160;SDS011;19522;45.656;11.302;2023-11-19T13:33:51;25.58;;;18.60;;
33160;SDS011;19522;45.656;11.302;2023-11-19T13:36:17;25.05;;;18.88;;
33160;SDS011;19522;45.656;11.302;2023-11-19T13:38:42;25.77;;;18.83;;
33160;SDS011;19522;45.656;11.302;2023-11-19T13:41:09;28.02;;;19.38;;
33160;SDS011;19522;45.656;11.302;2023-11-19T13:43:36;26.77;;;19.27;;
33160;SDS011;19522;45.656;11.302;2023-11-19T13:46:02;28.05;;;19.73;;
33160;SDS011;19522;45.656;11.302;2023-11-19T13:48:28;25.55;;;18.67;;
33160;SDS011;19522;45.656;11.302;2023-11-19T13:50:54;27.52;;;19.15;;
33160;SDS011;19522;45.656;11.302;2023-11-19T13:53:20;27.75;;;19.80;;
33160;SDS011;19522;45.656;11.302;2023-11-19T13:55:46;28.27;;;18.90;;
33160;SDS011;19522;45.656;11.302;2023-11-19T13:58:12;27.98;;;19.50;;
33160;SDS011;19522;45.656;11.302;2023-11-19T14:00:38;22.83;;;18.35;;
33160;SDS011;19522;45.656;11.302;2023-11-19T14:03:03;28.20;;;20.13;;
33160;SDS011;19522;45.656;11.302;2023-11-19T14:05:29;29.90;;;19.77;;
33160;SDS011;19522;45.656;11.302;2023-11-19T14:07:55;27.60;;;19.60;;
33160;SDS011;19522;45.656;11.302;2023-11-19T14:10:21;25.92;;;18.85;;
33160;SDS011;19522;45.656;11.302;2023-11-19T14:12:47;28.23;;;20.60;;
33160;SDS011;19522;45.656;11.302;2023-11-19T14:15:15;28.70;;;19.67;;
33160;SDS011;19522;45.656;11.302;2023-11-19T14:17:42;29.40;;;19.67;;
33160;SDS011;19522;45.656;11.302;2023-11-19T14:20:08;28.10;;;19.52;;
33160;SDS011;19522;45.656;11.302;2023-11-19T14:22:42;28.23;;;19.08;;
33160;SDS011;19522;45.656;11.302;2023-11-19T14:25:10;26.73;;;19.23;;
33160;SDS011;19522;45.656;11.302;2023-11-19T14:27:36;30.35;;;19.52;;
33160;SDS011;19522;45.656;11.302;2023-11-19T14:30:09;30.15;;;19.17;;
33160;SDS011;19522;45.656;11.302;2023-11-19T14:32:39;29.48;;;19.77;;
33160;SDS011;19522;45.656;11.302;2023-11-19T14:35:07;30.63;;;19.90;;
33160;SDS011;19522;45.656;11.302;2023-11-19T14:37:33;26.13;;;19.17;;
33160;SDS011;19522;45.656;11.302;2023-11-19T14:39:59;25.60;;;18.45;;